Flight Track Log - Related Links

Times and Time Zones

All times are in EDT time to prevent confusion due to time zone crossing. See the BKA724 flight status page for this flight to view local times or setup timezone preferences in your user account.

Time Position Orientation Groundspeed Altitude Reporting Facility
EDT Latitude Longitude Course Direction KTS MPH feet Rate Location/Type
Tue 01:02:50 PM 42.1378 -76.1292 206° Southwest 219 252 11,100  Level New York Center
Tue 01:03:50 PM 42.0694 -76.1656 202° Southwest 238 274 14,100 3,250 Climbing New York Center
Tue 01:04:50 PM 41.9969 -76.2014 200° South 266 306 17,600 3,900 Climbing New York Center
Tue 01:05:50 PM 41.9353 -76.2297 199° South 269 310 21,900 2,650 Climbing New York Center
Tue 01:06:00 PM 41.8695 -76.2589 197° South  Level FlightAware Approximate
Tue 01:06:50 PM 41.8961 -76.3103 237° Southwest 241 277 22,900  Level New York Center
Tue 01:07:50 PM 41.8536 -76.4181 242° Southwest 274 315 23,600 1,000 Climbing New York Center
Tue 01:08:50 PM 41.8025 -76.5278 238° Southwest 320 368 24,900 1,500 Climbing New York Center
Tue 01:09:50 PM 41.7628 -76.6161 239° Southwest 342 394 26,600 1,200 Climbing New York Center
Tue 01:10:50 PM 41.7058 -76.7556 241° Southwest 347 399 27,300 897 Climbing New York Center
Tue 01:11:37 PM 41.6631 -76.8061 221° Southwest 351 404 28,200 1,278 Climbing Cleveland Center
Tue 01:12:38 PM 41.5786 -76.8633 207° Southwest 332 382 29,600 878 Climbing Cleveland Center
Tue 01:13:40 PM 41.4947 -76.9139 204° Southwest 332 382 30,000 1,415 Climbing Cleveland Center
Tue 01:14:41 PM 41.3967 -76.9764 206° Southwest 329 379 32,500 2,244 Climbing Cleveland Center
Tue 01:15:43 PM 41.3219 -77.0222 205° Southwest 304 350 34,600 1,721 Climbing Cleveland Center
Tue 01:16:50 PM 41.2481 -77.0683 205° Southwest 299 344 36,200 1,228 Climbing New York Center
Tue 01:17:50 PM 41.1769 -77.1114 205° Southwest 287 330 37,200 850 Climbing New York Center
Tue 01:18:50 PM 41.1036 -77.1594 206° Southwest 287 330 37,900 400 Climbing New York Center
Tue 01:19:50 PM 41.0283 -77.2047 204° Southwest 292 336 38,000 50 Climbing New York Center
Tue 01:20:50 PM 40.9506 -77.2525 205° Southwest 297 342 38,000  Level New York Center
Tue 01:21:50 PM 40.8731 -77.3000 205° Southwest 303 349 38,000  Level New York Center
Tue 01:22:50 PM 40.7975 -77.3475 205° Southwest 308 354 38,000  Level New York Center
Tue 01:23:56 PM 40.7083 -77.4000 204° Southwest 307 353 38,000  Level Cleveland Center
Tue 01:24:58 PM 40.6319 -77.4464 205° Southwest 305 351 38,000  Level Cleveland Center
Tue 01:26:00 PM 40.5553 -77.4936 205° Southwest 305 351 38,000  Level Cleveland Center
Tue 01:27:01 PM 40.4775 -77.5397 204° Southwest 305 351 38,000  Level Cleveland Center
Tue 01:28:03 PM 40.3869 -77.5936 204° Southwest 303 349 38,000  Level Cleveland Center
Tue 01:29:05 PM 40.3114 -77.6408 205° Southwest 302 348 38,000  Level Cleveland Center
Tue 01:30:07 PM 40.2311 -77.6886 204° Southwest 301 346 38,000  Level Cleveland Center
Tue 01:31:08 PM 40.1553 -77.7333 204° Southwest 301 346 38,000  Level Cleveland Center
Tue 01:32:10 PM 40.0797 -77.7775 204° Southwest 299 344 38,000  Level Cleveland Center
Tue 01:33:12 PM 40.0039 -77.8231 205° Southwest 299 344 38,000  Level Cleveland Center
Tue 01:34:14 PM 39.9272 -77.8692 205° Southwest 299 344 38,000  Level Cleveland Center
Tue 01:35:15 PM 39.8514 -77.9136 204° Southwest 300 345 38,000  Level Cleveland Center
Tue 01:36:17 PM 39.7742 -77.9594 205° Southwest 301 346 38,000  Level Cleveland Center
Tue 01:37:19 PM 39.6836 -78.0117 204° Southwest 301 346 38,000  Level Cleveland Center
Tue 01:38:21 PM 39.6078 -78.0569 205° Southwest 300 345 38,000  Level Cleveland Center
Tue 01:39:22 PM 39.5314 -78.1011 204° Southwest 301 346 38,000  Level Cleveland Center
Tue 01:40:24 PM 39.4558 -78.1456 204° Southwest 301 346 38,000  Level Cleveland Center
Tue 01:41:26 PM 39.3797 -78.1900 204° Southwest 301 346 38,000  Level Cleveland Center
Tue 01:42:28 PM 39.3039 -78.2336 204° Southwest 301 346 38,000  Level Cleveland Center
Tue 01:43:26 PM 39.2231 -78.2789 203° Southwest 306 352 38,000  Level Washington Center
Tue 01:44:26 PM 39.1492 -78.3242 205° Southwest 306 352 38,000  Level Washington Center
Tue 01:45:27 PM 39.0731 -78.3669 204° Southwest 306 352 38,000  Level Washington Center
Tue 01:46:28 PM 38.9972 -78.4094 204° Southwest 306 352 38,000  Level Washington Center
Tue 01:47:26 PM 38.9211 -78.4544 205° Southwest 306 352 38,000  Level Washington Center
Tue 01:48:28 PM 38.8431 -78.4942 202° Southwest 301 346 38,000  Level Washington Center
Tue 01:49:25 PM 38.7689 -78.5364 204° Southwest 301 346 38,000  Level Washington Center
Tue 01:50:28 PM 38.6908 -78.5786 203° Southwest 301 346 38,000  Level Washington Center
Tue 01:51:28 PM 38.6147 -78.6233 205° Southwest 301 346 38,000  Level Washington Center
Tue 01:52:25 PM 38.5364 -78.6653 203° Southwest 301 346 38,000  Level Washington Center
Tue 01:53:26 PM 38.4603 -78.7044 202° Southwest 301 346 38,000  Level Washington Center
Tue 01:54:27 PM 38.3819 -78.7489 204° Southwest 301 346 38,000  Level Washington Center
Tue 01:55:27 PM 38.3058 -78.7908 203° Southwest 301 346 38,000  Level Washington Center
Tue 01:56:28 PM 38.2233 -78.8375 204° Southwest 301 346 38,000  Level Washington Center
Tue 01:57:28 PM 38.1469 -78.8789 203° Southwest 301 346 38,000  Level Washington Center
Tue 01:58:26 PM 38.0708 -78.9206 203° Southwest 301 346 38,000  Level Washington Center
Tue 02:00:27 PM 37.9247 -78.9983 203° Southwest 301 346 38,000  Level Washington Center
Tue 02:01:28 PM 37.8483 -79.0394 203° Southwest 301 346 38,000  Level Washington Center
Tue 02:02:28 PM 37.7700 -79.0806 203° Southwest 301 346 38,000  Level Washington Center
Tue 02:03:26 PM 37.6833 -79.1239 202° Southwest 301 346 38,000  Level Washington Center
Tue 02:04:27 PM 37.6047 -79.1672 204° Southwest 301 346 38,000 -541 Level Washington Center
Tue 02:05:28 PM 37.5306 -79.2058 202° Southwest 306 352 36,900 -1,059 Descending Washington Center
Tue 02:06:26 PM 37.4397 -79.2511 202° Southwest 314 361 35,900 -1,109 Descending Washington Center
Tue 02:07:27 PM 37.3589 -79.2944 203° Southwest 320 368 34,700 -1,140 Descending Washington Center
Tue 02:08:27 PM 37.2806 -79.3350 202° Southwest 320 368 33,600 -1,033 Descending Washington Center
Tue 02:09:29 PM 37.2106 -79.3733 204° Southwest 314 361 32,600 -1,008 Descending Washington Center
Tue 02:10:26 PM 37.1364 -79.4111 202° Southwest 304 350 31,600 -1,068 Descending Washington Center
Tue 02:11:27 PM 37.0639 -79.4519 204° Southwest 299 344 30,500 -744 Descending Washington Center
Tue 02:12:27 PM 36.9878 -79.4897 202° Southwest 299 344 30,100 -248 Descending Washington Center
Tue 02:13:28 PM 36.9156 -79.5275 203° Southwest 299 344 30,000 -50 Descending Washington Center
Tue 02:14:26 PM 36.8392 -79.5678 203° Southwest 294 338 30,000  Level Washington Center
Tue 02:15:28 PM 36.7628 -79.6056 202° Southwest 289 333 30,000  Level Washington Center
Tue 02:16:25 PM 36.6906 -79.6456 204° Southwest 289 333 30,000  Level Washington Center
Tue 02:18:10 PM 36.5494 -79.7128 201° Southwest 317 365 30,000  Level Atlanta Center
Tue 02:19:10 PM 36.4675 -79.7558 203° Southwest 317 365 30,000  Level Atlanta Center
Tue 02:20:10 PM 36.3856 -79.7989 203° Southwest 323 372 30,000  Level Atlanta Center
Tue 02:21:10 PM 36.3117 -79.8364 202° Southwest 323 372 30,000  Level Atlanta Center
Tue 02:22:10 PM 36.2297 -79.8792 203° Southwest 323 372 30,000  Level Atlanta Center
Tue 02:23:10 PM 36.1478 -79.9194 202° Southwest 323 372 30,000  Level Atlanta Center
Tue 02:24:10 PM 36.0656 -79.9622 203° Southwest 323 372 30,000  Level Atlanta Center
Tue 02:25:10 PM 35.9775 -80.0103 204° Southwest 328 377 30,000  Level Atlanta Center
Tue 02:26:10 PM 35.8936 -80.0581 205° Southwest 328 377 30,000  Level Atlanta Center
Tue 02:27:10 PM 35.8136 -80.1003 203° Southwest 328 377 30,000  Level Atlanta Center
Tue 02:28:10 PM 35.7297 -80.1478 205° Southwest 328 377 30,000 -50 Level Atlanta Center
Tue 02:29:10 PM 35.6558 -80.1897 205° Southwest 328 377 29,900 -900 Descending Atlanta Center
Tue 02:30:10 PM 35.5758 -80.2342 204° Southwest 334 384 28,200 -1,700 Descending Atlanta Center
Tue 02:31:10 PM 35.4917 -80.2817 205° Southwest 329 379 26,500 -1,550 Descending Atlanta Center
Tue 02:32:10 PM 35.4119 -80.3286 206° Southwest 329 379 25,100 -1,350 Descending Atlanta Center
Tue 02:33:10 PM 35.3297 -80.3703 202° Southwest 329 379 23,800 -1,350 Descending Atlanta Center
Tue 02:34:10 PM 35.2517 -80.4144 205° Southwest 322 371 22,400 -900 Descending Atlanta Center
Tue 02:35:10 PM 35.1717 -80.4589 204° Southwest 317 365 22,000 -1,309 Descending Atlanta Center
Tue 02:39:08 PM 34.8611 -80.6256 204° Southwest 307 353 15,900 -1,409 Descending Jacksonville Center
Tue 02:40:08 PM 34.7786 -80.6733 205° Southwest 302 348 15,000 -450 Descending Jacksonville Center
Tue 02:41:08 PM 34.7125 -80.7081 203° Southwest 290 334 15,000  Level Jacksonville Center
Tue 02:42:08 PM 34.6422 -80.7450 203° Southwest 290 334 15,000 -150 Level Jacksonville Center
Tue 02:43:08 PM 34.5636 -80.7897 205° Southwest 301 346 14,700 -1,150 Descending Jacksonville Center
Tue 02:44:08 PM 34.4872 -80.8294 203° Southwest 301 346 12,700 -1,750 Descending Jacksonville Center
Tue 02:45:08 PM 34.4128 -80.8767 208° Southwest 301 346 11,200 -1,388 Descending Jacksonville Center
Tue 02:46:09 PM 34.3492 -80.9308 215° Southwest 296 341 9,900 -1,750 Descending Jacksonville Center
Tue 02:47:08 PM 34.2936 -80.9850 219° Southwest 284 327 7,700 -2,471 Descending Jacksonville Center
Tue 02:48:08 PM 34.2289 -80.9964 188° South 241 277 5,000 -2,300 Descending Jacksonville Center
Tue 02:49:08 PM 34.1625 -81.0028 185° South 228 262 3,100 -1,900 Descending Jacksonville Center
Tue 02:55:00 PM 34.0178 -81.0700 212° Southwest  Level FlightAware Approximate
Tue 03:02:00 PM 33.9333 -81.1167 203° Southwest  Level FlightAware Approximate
Tue 03:03:00 PM 33.9388 -81.1195 203° Southwest  Level Estimated
Tue 03:04:00 PM 33.9333 -81.1167 203° Southwest  Level FlightAware Approximate

Login

Don't have an account? Register now (free) for customized features, flight alerts, and more!